createdAt,value
2019-03-28T00:00:45.421Z,53.10
2019-03-28T00:03:13.269Z,53.15
2019-03-28T00:05:41.101Z,53.06
2019-03-28T00:08:12.312Z,53.14
2019-03-28T00:10:38.815Z,53.24
2019-03-28T00:13:06.630Z,53.29
2019-03-28T00:15:34.499Z,53.29
2019-03-28T00:18:02.401Z,53.10
2019-03-28T00:20:30.331Z,53.31
2019-03-28T00:23:14.207Z,53.24
2019-03-28T00:25:41.946Z,53.27
2019-03-28T00:28:09.725Z,53.69
2019-03-28T00:30:37.598Z,53.71
2019-03-28T00:33:05.384Z,53.85
2019-03-28T00:35:33.155Z,53.97
2019-03-28T00:38:00.925Z,53.88
2019-03-28T00:40:28.725Z,54.26
2019-03-28T00:42:56.725Z,54.02
2019-03-28T00:45:24.743Z,53.84
2019-03-28T00:47:52.469Z,54.41
2019-03-28T00:50:20.264Z,54.51
2019-03-28T00:52:48.065Z,54.19
2019-03-28T00:55:15.855Z,54.37
2019-03-28T00:57:44.108Z,54.34
2019-03-28T01:00:12.107Z,54.64
2019-03-28T01:02:39.854Z,55.83
2019-03-28T01:05:07.764Z,55.12
2019-03-28T01:07:35.494Z,54.80
2019-03-28T01:10:03.186Z,54.41
2019-03-28T01:12:31.006Z,54.32
2019-03-28T01:14:58.772Z,54.17
2019-03-28T01:17:26.567Z,54.27
2019-03-28T01:19:54.321Z,53.98
2019-03-28T01:22:22.133Z,53.96
2019-03-28T01:24:49.836Z,53.78
2019-03-28T01:27:17.850Z,54.13
2019-03-28T01:29:45.590Z,53.94
2019-03-28T01:32:13.383Z,54.53
2019-03-28T01:34:41.170Z,54.57
2019-03-28T01:37:09.006Z,54.53
2019-03-28T01:39:36.958Z,54.66
2019-03-28T01:42:04.716Z,54.68
2019-03-28T01:44:32.499Z,54.53
2019-03-28T01:47:00.280Z,54.88
2019-03-28T01:49:28.030Z,54.68
2019-03-28T01:51:56.243Z,54.77
2019-03-28T01:54:24.244Z,55.07
2019-03-28T01:56:52.085Z,54.81
2019-03-28T01:59:19.939Z,55.18
2019-03-28T02:01:47.708Z,55.36
2019-03-28T02:04:15.618Z,55.54
2019-03-28T02:06:43.534Z,55.40
2019-03-28T02:09:11.337Z,55.18
2019-03-28T02:11:39.217Z,55.18
2019-03-28T02:14:06.953Z,55.07
2019-03-28T02:16:34.726Z,54.89
2019-03-28T02:19:02.658Z,56.51
2019-03-28T02:21:30.391Z,57.04
2019-03-28T02:23:58.155Z,57.31
2019-03-28T02:26:25.986Z,57.23
2019-03-28T02:28:53.721Z,57.26
2019-03-28T02:31:21.474Z,56.86
2019-03-28T02:33:49.279Z,57.34
2019-03-28T02:36:17.035Z,56.82
2019-03-28T02:38:44.945Z,56.46
2019-03-28T02:41:12.756Z,56.20
2019-03-28T02:43:40.515Z,56.39
2019-03-28T02:46:08.274Z,56.23
2019-03-28T02:48:36.072Z,56.22
2019-03-28T02:51:04.178Z,56.41
2019-03-28T02:53:32.095Z,56.17
2019-03-28T02:55:59.882Z,55.97
2019-03-28T02:58:27.616Z,56.16
2019-03-28T03:00:55.436Z,56.04
2019-03-28T03:03:23.201Z,56.49
2019-03-28T03:05:51.209Z,56.38
2019-03-28T03:08:18.983Z,56.23
2019-03-28T03:10:46.795Z,57.34
2019-03-28T03:13:14.605Z,56.78
2019-03-28T03:15:42.380Z,56.27
2019-03-28T03:18:10.172Z,55.91
2019-03-28T03:20:37.969Z,55.98
2019-03-28T03:23:05.709Z,55.73
2019-03-28T03:25:33.460Z,55.61
2019-03-28T03:28:01.246Z,55.65
2019-03-28T03:30:31.376Z,55.77
2019-03-28T03:32:58.721Z,55.74
2019-03-28T03:35:26.493Z,55.59
2019-03-28T03:37:55.869Z,55.79
2019-03-28T03:40:23.990Z,55.58
2019-03-28T03:42:51.777Z,55.51
2019-03-28T03:45:19.586Z,55.46
2019-03-28T03:47:47.324Z,55.59
2019-03-28T03:50:27.392Z,55.66
2019-03-28T03:52:55.259Z,55.76
2019-03-28T03:55:22.992Z,55.63
2019-03-28T03:57:50.758Z,56.00
2019-03-28T04:00:28.097Z,55.80
2019-03-28T04:02:55.847Z,56.31
2019-03-28T04:05:23.617Z,56.28
2019-03-28T04:07:51.535Z,56.33
2019-03-28T04:10:19.297Z,56.67
2019-03-28T04:12:47.062Z,57.72
2019-03-28T04:15:14.844Z,57.53
2019-03-28T04:17:42.601Z,57.48
2019-03-28T04:20:10.450Z,57.26
2019-03-28T04:22:38.193Z,57.21
2019-03-28T04:25:05.940Z,56.89
2019-03-28T04:27:33.759Z,57.15
2019-03-28T04:30:01.545Z,57.09
2019-03-28T04:32:29.375Z,57.01
2019-03-28T04:34:57.171Z,56.91
2019-03-28T04:37:25.087Z,57.13
2019-03-28T04:39:53.490Z,57.73
2019-03-28T04:42:21.976Z,57.55
2019-03-28T04:44:51.440Z,57.22
2019-03-28T04:47:19.453Z,56.94
2019-03-28T04:49:47.628Z,56.78
2019-03-28T04:52:15.539Z,56.82
2019-03-28T04:54:43.395Z,56.81
2019-03-28T04:57:11.262Z,56.84
2019-03-28T04:59:39.056Z,56.88
2019-03-28T05:02:06.855Z,56.85
2019-03-28T05:04:34.732Z,56.95
2019-03-28T05:07:02.749Z,57.24
2019-03-28T05:09:32.954Z,56.48
2019-03-28T05:12:00.850Z,56.16
2019-03-28T05:14:28.731Z,56.04
2019-03-28T05:16:56.583Z,55.86
2019-03-28T05:19:24.479Z,55.71
2019-03-28T05:21:52.357Z,55.69
2019-03-28T05:24:20.290Z,55.68
2019-03-28T05:26:48.150Z,55.83
2019-03-28T05:29:16.167Z,56.40
2019-03-28T05:31:44.348Z,56.28
2019-03-28T05:34:12.217Z,56.20
2019-03-28T05:36:40.296Z,56.15
2019-03-28T05:39:08.190Z,56.13
2019-03-28T05:41:35.904Z,55.95
2019-03-28T05:44:03.705Z,56.03
2019-03-28T05:46:31.606Z,55.18
2019-03-28T05:48:59.417Z,54.47
2019-03-28T05:51:27.185Z,53.75
2019-03-28T05:53:55.139Z,53.20
2019-03-28T05:56:22.892Z,52.89
2019-03-28T05:58:50.768Z,52.58
2019-03-28T06:01:18.554Z,52.65
2019-03-28T06:03:46.502Z,52.85
2019-03-28T06:06:14.369Z,53.97
2019-03-28T06:08:42.222Z,54.19
2019-03-28T06:11:10.192Z,54.37
2019-03-28T06:13:38.069Z,54.52
2019-03-28T06:16:05.883Z,54.73
2019-03-28T06:18:33.879Z,54.67
2019-03-28T06:21:01.686Z,54.80
2019-03-28T06:23:29.541Z,54.79
2019-03-28T06:25:57.377Z,54.90
2019-03-28T06:28:25.461Z,55.13
2019-03-28T06:30:55.802Z,55.00
2019-03-28T06:33:23.189Z,54.67
2019-03-28T06:35:51.055Z,54.65
2019-03-28T06:38:18.883Z,54.66
2019-03-28T06:40:47.009Z,54.83
2019-03-28T06:43:14.906Z,54.85
2019-03-28T06:45:42.773Z,54.89
2019-03-28T06:48:10.686Z,54.71
2019-03-28T06:50:38.479Z,54.44
2019-03-28T06:53:06.409Z,54.48
2019-03-28T06:55:36.782Z,54.32
2019-03-28T06:58:04.108Z,54.38
2019-03-28T07:00:31.928Z,54.40
2019-03-28T07:02:59.628Z,54.27
2019-03-28T07:05:27.631Z,54.44
2019-03-28T07:07:55.403Z,54.48
2019-03-28T07:10:23.146Z,54.43
2019-03-28T07:12:50.937Z,54.32
2019-03-28T07:15:18.710Z,54.51
2019-03-28T07:17:47.030Z,54.79
2019-03-28T07:20:16.627Z,54.16
2019-03-28T07:22:45.963Z,53.81
2019-03-28T07:25:14.242Z,53.71
2019-03-28T07:27:42.134Z,53.57
2019-03-28T07:30:09.969Z,53.56
2019-03-28T07:32:37.915Z,53.44
2019-03-28T07:35:05.974Z,53.41
2019-03-28T07:37:33.846Z,53.31
2019-03-28T07:40:01.645Z,53.29
2019-03-28T07:42:29.503Z,53.17
2019-03-28T07:44:58.122Z,53.04
2019-03-28T07:47:26.327Z,52.87
2019-03-28T07:49:54.295Z,52.73
2019-03-28T07:52:22.602Z,52.68
2019-03-28T07:54:50.397Z,52.59
2019-03-28T07:57:18.158Z,52.43
2019-03-28T07:59:45.959Z,52.45
2019-03-28T08:02:13.754Z,52.45
2019-03-28T08:04:41.562Z,52.42
2019-03-28T08:07:09.387Z,52.26
2019-03-28T08:09:37.233Z,52.18
2019-03-28T08:12:05.070Z,52.18
2019-03-28T08:14:32.874Z,52.09
2019-03-28T08:17:00.697Z,52.05
2019-03-28T08:19:28.454Z,52.00
2019-03-28T08:21:56.230Z,51.95
2019-03-28T08:24:24.024Z,51.97
2019-03-28T08:26:51.814Z,52.00
2019-03-28T08:29:19.528Z,51.96
2019-03-28T08:31:48.629Z,51.86
2019-03-28T08:34:16.437Z,51.90
2019-03-28T08:36:44.450Z,51.90
2019-03-28T08:39:12.245Z,51.87
2019-03-28T08:41:39.978Z,51.86
2019-03-28T08:44:07.815Z,51.86
2019-03-28T08:46:35.568Z,51.81
2019-03-28T08:49:03.301Z,51.80
2019-03-28T08:51:31.461Z,51.77
2019-03-28T08:54:00.233Z,51.73
2019-03-28T08:56:28.006Z,51.69
2019-03-28T08:58:55.806Z,51.61
2019-03-28T09:01:23.809Z,51.54
2019-03-28T09:03:51.686Z,51.49
2019-03-28T09:06:19.481Z,51.42
2019-03-28T09:08:47.304Z,51.30
2019-03-28T09:11:15.056Z,51.28
2019-03-28T09:13:42.866Z,51.20
2019-03-28T09:16:10.614Z,51.07
2019-03-28T09:18:38.423Z,50.91
2019-03-28T09:21:06.285Z,50.91
2019-03-28T09:23:34.169Z,50.98
2019-03-28T09:26:04.325Z,50.96
2019-03-28T09:28:31.633Z,50.95
2019-03-28T09:30:59.461Z,50.92
2019-03-28T09:33:27.299Z,50.82
2019-03-28T09:35:55.247Z,50.79
2019-03-28T09:38:23.004Z,50.77
2019-03-28T09:40:50.933Z,50.77
2019-03-28T09:43:18.769Z,50.70
2019-03-28T09:45:46.530Z,50.67
2019-03-28T09:48:14.342Z,50.61
2019-03-28T09:50:42.078Z,50.54
2019-03-28T09:53:09.854Z,50.46
2019-03-28T09:55:37.663Z,50.33
2019-03-28T09:58:05.483Z,50.18
2019-03-28T10:00:34.562Z,50.04
2019-03-28T10:03:02.618Z,50.08
2019-03-28T10:05:30.368Z,50.06
2019-03-28T10:07:58.234Z,49.89
2019-03-28T10:10:26.005Z,49.82
2019-03-28T10:12:53.747Z,49.83
2019-03-28T10:15:21.534Z,49.93
2019-03-28T10:17:49.406Z,50.01
2019-03-28T10:20:17.387Z,49.99
2019-03-28T10:22:45.185Z,50.01
2019-03-28T10:25:14.587Z,50.00
2019-03-28T10:27:42.556Z,49.96
2019-03-28T10:30:10.351Z,49.86
2019-03-28T10:32:38.181Z,49.71
2019-03-28T10:35:07.147Z,49.59
2019-03-28T10:37:35.078Z,49.42
2019-03-28T10:40:03.125Z,49.32
2019-03-28T10:42:30.932Z,49.37
2019-03-28T10:44:58.904Z,49.40
2019-03-28T10:47:27.291Z,49.42
2019-03-28T10:49:55.252Z,49.42
2019-03-28T10:52:23.150Z,49.31
2019-03-28T10:54:50.962Z,49.27
2019-03-28T10:57:29.386Z,49.35
2019-03-28T10:59:48.462Z,49.32
2019-03-28T11:02:16.249Z,49.26
2019-03-28T11:04:44.045Z,49.20
2019-03-28T11:07:11.799Z,49.16
2019-03-28T11:09:39.760Z,49.11
2019-03-28T11:12:07.557Z,49.27
2019-03-28T11:14:35.449Z,49.46
2019-03-28T11:17:03.513Z,49.51
2019-03-28T11:19:31.415Z,49.35
2019-03-28T11:21:59.362Z,49.25
2019-03-28T11:24:27.186Z,49.27
2019-03-28T11:26:54.973Z,49.34
2019-03-28T11:29:22.901Z,49.27
2019-03-28T11:31:52.490Z,49.55
2019-03-28T11:34:22.622Z,49.71
2019-03-28T11:36:53.807Z,49.82
2019-03-28T11:39:25.052Z,49.87
2019-03-28T11:41:53.001Z,50.00
2019-03-28T11:44:20.871Z,50.10
2019-03-28T11:46:48.726Z,50.01
2019-03-28T11:49:16.646Z,50.20
2019-03-28T11:51:44.450Z,50.14
2019-03-28T11:54:12.346Z,50.21
2019-03-28T11:56:40.220Z,50.29
2019-03-28T11:59:08.065Z,50.08
2019-03-28T12:01:35.846Z,50.27
2019-03-28T12:04:03.636Z,50.51
2019-03-28T12:06:31.542Z,50.44
2019-03-28T12:08:59.388Z,50.60
2019-03-28T12:11:27.277Z,50.60
2019-03-28T12:13:55.244Z,50.71
2019-03-28T12:16:23.006Z,50.76
2019-03-28T12:18:50.911Z,50.83
2019-03-28T12:21:18.777Z,51.18
2019-03-28T12:23:47.686Z,50.91
2019-03-28T12:26:15.454Z,50.70
2019-03-28T12:28:43.250Z,50.66
2019-03-28T12:31:11.087Z,50.39
2019-03-28T12:33:38.800Z,50.42
2019-03-28T12:36:06.595Z,50.54
2019-03-28T12:38:34.405Z,50.59
2019-03-28T12:41:02.299Z,50.76
2019-03-28T12:43:30.175Z,50.89
2019-03-28T12:46:00.601Z,50.77
2019-03-28T12:48:28.782Z,50.67
2019-03-28T12:51:00.861Z,50.56
2019-03-28T12:53:31.781Z,50.48
2019-03-28T12:56:00.204Z,50.55
2019-03-28T12:58:28.088Z,50.56
2019-03-28T13:00:57.288Z,50.63
2019-03-28T13:03:54.550Z,50.49
2019-03-28T13:06:30.295Z,50.15
2019-03-28T13:09:05.056Z,50.05
2019-03-28T13:11:38.494Z,50.00
2019-03-28T13:14:06.362Z,49.98
2019-03-28T13:16:36.147Z,49.93
2019-03-28T13:19:08.757Z,50.24
2019-03-28T13:21:41.783Z,50.53
2019-03-28T13:24:09.777Z,50.42
2019-03-28T13:26:37.682Z,50.31
2019-03-28T13:29:05.565Z,50.57
2019-03-28T13:31:33.421Z,50.54
2019-03-28T13:34:01.498Z,50.39
2019-03-28T13:36:29.331Z,50.77
2019-03-28T13:38:57.131Z,50.74
2019-03-28T13:41:24.854Z,50.73
2019-03-28T13:43:52.860Z,50.77
2019-03-28T13:46:20.589Z,51.00
2019-03-28T13:48:48.355Z,50.50
2019-03-28T13:51:16.165Z,50.29
2019-03-28T13:53:43.969Z,50.19
2019-03-28T13:56:11.739Z,50.11
2019-03-28T13:58:39.641Z,49.99
2019-03-28T14:01:07.391Z,49.87
2019-03-28T14:03:35.224Z,49.83
2019-03-28T14:06:02.939Z,49.81
2019-03-28T14:08:30.726Z,49.79
2019-03-28T14:10:58.566Z,49.81
2019-03-28T14:13:26.347Z,49.79
2019-03-28T14:15:54.992Z,49.83
2019-03-28T14:18:22.873Z,49.85
2019-03-28T14:20:50.625Z,49.87
2019-03-28T14:23:18.631Z,49.85
2019-03-28T14:25:46.652Z,49.80
2019-03-28T14:28:14.449Z,49.79
2019-03-28T14:30:42.211Z,49.76
2019-03-28T14:33:11.632Z,49.68
2019-03-28T14:35:39.692Z,49.67
2019-03-28T14:38:07.495Z,49.70
2019-03-28T14:40:35.226Z,49.75
2019-03-28T14:43:03.196Z,49.70
2019-03-28T14:45:30.982Z,49.71
2019-03-28T14:47:58.729Z,49.66
2019-03-28T14:50:36.855Z,49.57
2019-03-28T14:53:04.638Z,49.52
2019-03-28T14:55:32.640Z,49.41
2019-03-28T14:58:00.433Z,49.40
2019-03-28T15:00:53.279Z,49.44
2019-03-28T15:03:26.373Z,49.41
2019-03-28T15:05:50.869Z,49.46
2019-03-28T15:08:18.989Z,49.53
2019-03-28T15:10:46.812Z,49.55
2019-03-28T15:13:14.569Z,49.55
2019-03-28T15:15:42.344Z,49.53
2019-03-28T15:18:10.160Z,49.57
2019-03-28T15:20:37.946Z,49.53
2019-03-28T15:23:05.661Z,49.53
2019-03-28T15:25:33.421Z,49.55
2019-03-28T15:28:01.193Z,49.58
2019-03-28T15:30:29.820Z,49.61
2019-03-28T15:32:57.801Z,49.53
2019-03-28T15:35:25.531Z,49.46
2019-03-28T15:37:53.331Z,49.40
2019-03-28T15:40:21.083Z,49.42
2019-03-28T15:42:49.041Z,49.37
2019-03-28T15:45:17.031Z,49.42
2019-03-28T15:47:44.946Z,49.39
2019-03-28T15:50:12.699Z,49.42
2019-03-28T15:52:40.448Z,49.44
2019-03-28T15:55:08.218Z,49.46
2019-03-28T15:57:36.012Z,49.51
2019-03-28T16:00:04.357Z,49.55
2019-03-28T16:02:32.052Z,49.54
2019-03-28T16:04:59.879Z,49.60
2019-03-28T16:07:29.442Z,49.64
2019-03-28T16:09:59.649Z,49.67
2019-03-28T16:12:28.481Z,49.73
2019-03-28T16:14:56.239Z,49.85
2019-03-28T16:17:23.950Z,49.89
2019-03-28T16:19:51.992Z,49.91
2019-03-28T16:22:19.787Z,49.90
2019-03-28T16:24:47.521Z,49.96
2019-03-28T16:27:15.306Z,50.01
2019-03-28T16:29:43.070Z,50.03
2019-03-28T16:32:10.891Z,50.03
2019-03-28T16:34:38.709Z,50.08
2019-03-28T16:37:06.595Z,50.48
2019-03-28T16:39:34.337Z,50.41
2019-03-28T16:42:02.176Z,50.29
2019-03-28T16:44:29.950Z,50.33
2019-03-28T16:46:57.928Z,50.32
2019-03-28T16:49:25.639Z,50.31
2019-03-28T16:51:53.379Z,50.30
2019-03-28T16:54:21.127Z,50.32
2019-03-28T16:56:48.931Z,50.32
2019-03-28T16:59:16.670Z,50.32
2019-03-28T17:01:44.410Z,50.37
2019-03-28T17:04:20.705Z,50.43
2019-03-28T17:06:41.816Z,50.44
2019-03-28T17:09:09.831Z,50.46
2019-03-28T17:11:38.041Z,50.43
2019-03-28T17:14:05.862Z,50.50
2019-03-28T17:16:33.585Z,50.52
2019-03-28T17:19:01.346Z,50.53
2019-03-28T17:21:29.078Z,50.56
2019-03-28T17:23:56.823Z,50.55
2019-03-28T17:26:24.585Z,50.59
2019-03-28T17:28:52.372Z,50.61
2019-03-28T17:31:20.128Z,50.64
2019-03-28T17:33:47.911Z,50.64
2019-03-28T17:36:15.725Z,50.63
2019-03-28T17:38:43.493Z,50.67
2019-03-28T17:41:11.249Z,50.69
2019-03-28T17:43:39.079Z,50.72
2019-03-28T17:46:06.816Z,50.70
2019-03-28T17:48:34.563Z,50.74
2019-03-28T17:51:02.372Z,50.75
2019-03-28T17:53:30.127Z,50.78
2019-03-28T17:55:57.867Z,50.77
2019-03-28T17:58:25.598Z,50.82
2019-03-28T18:00:53.549Z,50.82
2019-03-28T18:03:31.099Z,50.97
2019-03-28T18:05:57.939Z,51.28
2019-03-28T18:08:24.865Z,51.65
2019-03-28T18:10:55.885Z,51.70
2019-03-28T18:13:36.619Z,51.73
2019-03-28T18:16:17.912Z,51.66
2019-03-28T18:18:48.517Z,51.83
2019-03-28T18:21:16.362Z,51.75
2019-03-28T18:23:46.389Z,51.76
2019-03-28T18:26:14.199Z,51.70
2019-03-28T18:28:42.221Z,51.97
2019-03-28T18:31:15.511Z,52.20
2019-03-28T18:33:44.109Z,52.28
2019-03-28T18:36:11.895Z,52.32
2019-03-28T18:38:39.659Z,52.47
2019-03-28T18:41:07.380Z,52.34
2019-03-28T18:43:35.162Z,52.29
2019-03-28T18:46:02.977Z,52.23
2019-03-28T18:48:36.137Z,52.13
2019-03-28T18:51:00.372Z,51.98
2019-03-28T18:53:28.156Z,51.78
2019-03-28T18:55:59.544Z,51.91
2019-03-28T18:59:31.146Z,52.44
2019-03-28T19:02:14.342Z,52.53
2019-03-28T19:05:19.229Z,52.56
2019-03-28T19:07:38.252Z,52.62
2019-03-28T19:10:11.857Z,52.61
2019-03-28T19:12:41.776Z,52.52
2019-03-28T19:15:13.580Z,52.61
2019-03-28T19:17:44.734Z,52.58
2019-03-28T19:20:49.227Z,52.56
2019-03-28T19:23:22.195Z,52.60
2019-03-28T19:25:51.465Z,52.53
2019-03-28T19:28:28.991Z,52.76
2019-03-28T19:31:04.889Z,52.81
2019-03-28T19:33:41.876Z,52.87
2019-03-28T19:36:37.627Z,52.79
2019-03-28T19:39:34.142Z,52.85
2019-03-28T19:42:17.826Z,52.92
2019-03-28T19:45:31.586Z,52.91
2019-03-28T19:48:00.954Z,52.87
2019-03-28T19:50:29.476Z,52.95
2019-03-28T19:52:58.628Z,52.72
2019-03-28T19:55:26.393Z,52.71
2019-03-28T19:57:54.149Z,52.55
2019-03-28T20:00:21.940Z,52.55
2019-03-28T20:03:00.220Z,52.54
2019-03-28T20:05:29.537Z,52.52
2019-03-28T20:07:59.705Z,52.54
2019-03-28T20:10:30.067Z,52.68
2019-03-28T20:13:00.154Z,52.51
2019-03-28T20:15:30.451Z,52.66
2019-03-28T20:17:59.824Z,52.67
2019-03-28T20:20:29.457Z,52.59
2019-03-28T20:23:02.937Z,52.56
2019-03-28T20:25:32.749Z,52.55
2019-03-28T20:28:14.531Z,52.59
2019-03-28T20:30:45.037Z,52.61
2019-03-28T20:33:17.170Z,52.69
2019-03-28T20:36:05.750Z,52.76
2019-03-28T20:38:20.496Z,52.86
2019-03-28T20:40:58.373Z,52.83
2019-03-28T20:43:40.429Z,52.58
2019-03-28T20:46:10.908Z,52.59
2019-03-28T20:48:43.736Z,52.88
2019-03-28T20:51:11.639Z,53.04
2019-03-28T20:53:39.435Z,52.93
2019-03-28T20:56:07.195Z,53.24
2019-03-28T20:58:35.008Z,53.40
2019-03-28T21:01:03.051Z,53.52
2019-03-28T21:03:30.788Z,53.68
2019-03-28T21:05:58.565Z,53.54
2019-03-28T21:08:26.283Z,53.57
2019-03-28T21:10:54.010Z,53.66
2019-03-28T21:13:21.758Z,53.51
2019-03-28T21:15:49.537Z,53.51
2019-03-28T21:18:17.340Z,53.90
2019-03-28T21:20:45.110Z,53.87
2019-03-28T21:23:12.981Z,53.89
2019-03-28T21:25:40.835Z,53.91
2019-03-28T21:28:08.553Z,53.98
2019-03-28T21:30:46.701Z,54.13
2019-03-28T21:33:06.054Z,54.13
2019-03-28T21:35:33.827Z,54.20
2019-03-28T21:38:01.589Z,54.13
2019-03-28T21:40:29.299Z,54.28
2019-03-28T21:42:57.151Z,54.40
2019-03-28T21:45:24.923Z,54.40
2019-03-28T21:47:52.700Z,54.66
2019-03-28T21:50:21.547Z,54.20
2019-03-28T21:52:49.341Z,54.28
2019-03-28T21:55:17.156Z,53.86
2019-03-28T21:57:44.946Z,53.91
2019-03-28T22:00:12.735Z,53.75
2019-03-28T22:02:40.500Z,53.72
2019-03-28T22:05:08.232Z,53.68
2019-03-28T22:07:36.027Z,53.70
2019-03-28T22:10:04.608Z,53.65
2019-03-28T22:12:32.427Z,53.67
2019-03-28T22:15:00.351Z,53.73
2019-03-28T22:17:28.328Z,54.30
2019-03-28T22:19:56.128Z,54.53
2019-03-28T22:22:23.890Z,54.83
2019-03-28T22:24:51.662Z,54.98
2019-03-28T22:27:19.437Z,55.19
2019-03-28T22:29:47.281Z,55.33
2019-03-28T22:32:15.042Z,55.46
2019-03-28T22:34:42.813Z,55.60
2019-03-28T22:37:10.592Z,55.71
2019-03-28T22:39:39.059Z,55.84
2019-03-28T22:42:07.088Z,56.11
2019-03-28T22:44:34.834Z,56.00
2019-03-28T22:47:02.571Z,56.25
2019-03-28T22:49:30.310Z,56.14
2019-03-28T22:51:58.226Z,56.50
2019-03-28T22:54:25.953Z,56.42
2019-03-28T22:56:53.686Z,56.60
2019-03-28T22:59:21.435Z,56.70
2019-03-28T23:01:49.195Z,56.66
2019-03-28T23:04:16.978Z,56.54
2019-03-28T23:06:44.726Z,56.85
2019-03-28T23:09:12.561Z,56.82
2019-03-28T23:11:40.717Z,57.21
2019-03-28T23:14:08.885Z,57.17
2019-03-28T23:16:36.669Z,57.19
2019-03-28T23:19:04.421Z,57.16
2019-03-28T23:21:32.189Z,57.10
2019-03-28T23:23:59.969Z,56.95
2019-03-28T23:26:27.753Z,56.87
2019-03-28T23:28:55.627Z,56.58
2019-03-28T23:31:23.387Z,56.49
2019-03-28T23:33:51.097Z,56.44
2019-03-28T23:36:18.911Z,56.29
2019-03-28T23:38:46.666Z,56.60
2019-03-28T23:41:14.384Z,56.97
2019-03-28T23:43:42.178Z,57.11
2019-03-28T23:46:09.930Z,57.03
2019-03-28T23:48:37.729Z,56.82
2019-03-28T23:51:05.470Z,56.86
2019-03-28T23:53:33.301Z,56.92
2019-03-28T23:56:01.127Z,57.58
2019-03-28T23:58:28.831Z,57.66
